Morton S Bouchard Jr — WSE9678 — position and weather

sailwx.info

Track history (hours):
 
Tides and Currents Weather Stations Pressure Air Temp Water Temp Dewpoint Dewpoint Depression Visibility Wind Speed Wind Dir Waves Ship Positions

Morton S Bouchard Jr

Owner: BOUCHARD TRANSPORTATION CO INC, MELVILLE, NY. More information available from US FCC via Universal Licensing System and Coast Guard Vessel Documentation Center.

Last reported at 2015-May-04 11:33 UTC. Time now 2015-May-04 12:02 UTC.
Position N 40°41' W 074°00'.

Length 33 m; draft 6 m.

Type: Tug. MMSI: 367006550.

Date/timePositionNaut miles runAvg speedWind from/ knotsBaromVisibWave heightAir tempDewpointWater temp
2015-May-04 11:33N 40°41' W 074°00'0 0.0
2015-May-04 10:33N 40°41' W 074°00'0 0.0
2015-May-04 09:33N 40°41' W 074°00'0 0.0
2015-May-04 08:33N 40°41' W 074°00'0 0.0
2015-May-04 07:33N 40°41' W 074°00'0 0.0
2015-May-04 06:33N 40°41' W 074°00'0 0.0
2015-May-04 05:33N 40°41' W 074°00'0 0.0
2015-May-04 04:33N 40°42' W 074°00'0 0.0
2015-May-04 03:33N 40°42' W 074°00'0 0.0
2015-May-04 02:33N 40°42' W 074°00'0 0.0
2015-May-04 01:33N 40°41' W 074°00'0 0.0
2015-May-04 00:33N 40°41' W 074°00'0 0.1
2015-May-03 23:33N 40°41' W 074°00'3 3.3
2015-May-03 22:34N 40°40' W 074°04'7 7.2
2015-May-03 21:33N 40°36' W 074°12'0 0.0
2015-May-03 20:34N 40°36' W 074°12'5 4.5
2015-May-03 19:31N 40°32' W 074°15'0 0.0
2015-May-03 18:33N 40°32' W 074°15'0 0.0
2015-May-03 17:33N 40°32' W 074°15'0 0.0
2015-May-03 16:33N 40°32' W 074°15'0 0.0
2015-May-03 15:33N 40°32' W 074°15'0 0.0
2015-May-03 14:33N 40°32' W 074°15'0 0.0
2015-May-03 13:05N 40°32' W 074°15'0 0.3
2015-May-03 11:23N 40°33' W 074°15'0 0.1
2015-May-03 10:33N 40°33' W 074°15'7 6.6
2015-May-03 09:33N 40°39' W 074°11'3 3.3
2015-May-03 08:33N 40°39' W 074°07'0 0.0
2015-May-03 07:33N 40°39' W 074°07'0 0.0
2015-May-03 06:33N 40°39' W 074°07'0 0.0
2015-May-03 05:33N 40°39' W 074°07'0 0.0
2015-May-03 04:33N 40°39' W 074°07'0 0.0
2015-May-03 03:33N 40°39' W 074°07'0 0.0
2015-May-03 02:33N 40°39' W 074°07'0 0.0
2015-May-03 01:33N 40°39' W 074°07'0 0.0
2015-May-03 00:32N 40°39' W 074°07'0 0.0
2015-May-02 23:33N 40°39' W 074°07'0 0.0
2015-May-02 22:33N 40°39' W 074°07'4 3.7
2015-May-02 21:33N 40°38' W 074°12'1 1.0
2015-May-02 20:33N 40°37' W 074°12'5 4.7
2015-May-02 19:33N 40°39' W 074°06'3 3.0
2015-May-02 18:33N 40°40' W 074°03'0 0.0
2015-May-02 17:33N 40°40' W 074°03'0 0.0
2015-May-02 16:33N 40°40' W 074°03'0 0.0
2015-May-02 15:33N 40°40' W 074°03'0 0.1
2015-May-02 14:33N 40°40' W 074°03'0 0.0
2015-May-02 13:33N 40°40' W 074°03'0 0.0
2015-May-02 12:33N 40°40' W 074°02'0 0.0
2015-May-02 11:33N 40°40' W 074°02'0 0.1
2015-May-02 10:33N 40°40' W 074°03'0 0.1
2015-May-02 09:33N 40°40' W 074°03'0 0.0
2015-May-02 08:33N 40°40' W 074°03'0 0.0
2015-May-02 07:33N 40°40' W 074°03'0 0.0
2015-May-02 06:33N 40°40' W 074°03'0 0.0
2015-May-02 05:33N 40°40' W 074°03'0 0.0
2015-May-02 04:33N 40°40' W 074°03'0 0.0
2015-May-02 03:33N 40°40' W 074°03'0 0.1
2015-May-02 02:33N 40°40' W 074°03'5 5.4
2015-May-02 01:33N 40°44' W 073°58'6 5.8
2015-May-02 00:33N 40°48' W 073°52'5 4.9
2015-May-01 23:32N 40°50' W 073°46'8 3.9
2015-May-01 21:33N 40°55' W 073°38'5 5.1
2015-May-01 20:33N 40°57' W 073°32'7 7.0
2015-May-01 19:33N 41°00' W 073°24'7 6.8
2015-May-01 18:33N 41°03' W 073°16'7 6.7
2015-May-01 17:33N 41°05' W 073°07'7 6.7
2015-May-01 16:33N 41°09' W 073°00'7 6.5
2015-May-01 15:33N 41°14' W 072°55'3 3.3
2015-May-01 14:31N 41°18' W 072°54'0 0.0
2015-May-01 11:11N 41°18' W 072°54'0 0.0
2015-May-01 10:33N 41°18' W 072°54'0 0.0
2015-May-01 09:33N 41°18' W 072°54'0 0.0
2015-May-01 08:33N 41°18' W 072°54'0 0.0
2015-May-01 07:33N 41°18' W 072°54'0 0.0
2015-May-01 06:33N 41°18' W 072°54'0 0.0
2015-May-01 05:21N 41°18' W 072°54'0 0.0
2015-May-01 04:22N 41°18' W 072°54'0 0.0
2015-May-01 03:30N 41°18' W 072°54'0 0.0
2015-May-01 02:32N 41°18' W 072°54'0 0.0
2015-May-01 01:33N 41°18' W 072°54'0 0.0
2015-May-01 00:32N 41°18' W 072°54'0 0.0
2015-Apr-30 23:33N 41°18' W 072°54'0 0.0
2015-Apr-30 22:31N 41°18' W 072°54'0 0.0
2015-Apr-30 21:06N 41°18' W 072°54'0 0.0
2015-Apr-30 20:31N 41°18' W 072°54'4 3.7
2015-Apr-30 19:33N 41°14' W 072°55'7 6.8
2015-Apr-30 18:33N 41°09' W 073°01'8 8.1
2015-Apr-30 17:33N 41°04' W 073°10'8 8.1
2015-Apr-30 16:33N 41°01' W 073°20'8 8.0
2015-Apr-30 15:33N 40°58' W 073°30'7 7.5
2015-Apr-30 14:33N 40°55' W 073°39'7 7.2
2015-Apr-30 13:33N 40°51' W 073°46'6 6.0
2015-Apr-30 12:33N 40°48' W 073°53'6 6.0
2015-Apr-30 11:33N 40°43' W 073°58'7 6.6
2015-Apr-30 10:33N 40°39' W 074°04'6 6.4
2015-Apr-30 09:33N 40°36' W 074°12'1 1.5
2015-Apr-30 08:33N 40°35' W 074°13'0 0.0
2015-Apr-30 07:34N 40°35' W 074°13'4 4.3
2015-Apr-30 06:33N 40°39' W 074°10'2 2.4
2015-Apr-30 05:33N 40°39' W 074°07'0 0.0
2015-Apr-30 04:33N 40°39' W 074°07'0 0.0
2015-Apr-30 03:34N 40°39' W 074°07'0 0.0
2015-Apr-30 02:33N 40°39' W 074°07'0 0.0
2015-Apr-30 01:33N 40°39' W 074°07'0 0.0
2015-Apr-30 00:33N 40°39' W 074°07'0 0.0
2015-Apr-29 23:33N 40°39' W 074°07'0 0.0
2015-Apr-29 22:33N 40°39' W 074°07'0 0.0
2015-Apr-29 21:33N 40°39' W 074°07'0 0.0
2015-Apr-29 20:33N 40°39' W 074°07'0 0.0
2015-Apr-29 19:33N 40°39' W 074°07'0 0.0
2015-Apr-29 18:33N 40°39' W 074°07'4 4.4
2015-Apr-29 17:33N 40°37' W 074°12'2 1.6
2015-Apr-29 16:30N 40°35' W 074°12'5 5.4
2015-Apr-29 15:33N 40°39' W 074°07'4 4.1
2015-Apr-29 14:33N 40°40' W 074°02'0 0.0
2015-Apr-29 13:33N 40°40' W 074°02'0 0.0
2015-Apr-29 12:33N 40°40' W 074°02'0 0.0
2015-Apr-29 11:33N 40°40' W 074°02'0 0.1
2015-Apr-29 10:33N 40°40' W 074°02'0 0.0
2015-Apr-29 09:33N 40°40' W 074°02'0 0.1
2015-Apr-29 08:33N 40°40' W 074°02'0 0.0
2015-Apr-29 07:33N 40°40' W 074°02'0 0.0
2015-Apr-29 06:33N 40°40' W 074°02'0 0.0
2015-Apr-29 05:33N 40°40' W 074°02'0 0.0
2015-Apr-29 04:33N 40°40' W 074°02'0 0.0
2015-Apr-29 03:33N 40°40' W 074°02'0 0.0
2015-Apr-29 02:33N 40°40' W 074°02'0 0.0
2015-Apr-29 01:34N 40°40' W 074°02'0 0.0
2015-Apr-29 00:33N 40°40' W 074°02'0 0.0
2015-Apr-28 23:33N 40°40' W 074°02'0 0.0
2015-Apr-28 22:34N 40°40' W 074°02'0 0.0
2015-Apr-28 21:33N 40°40' W 074°02'0 0.1
2015-Apr-28 20:33N 40°40' W 074°02'0 0.0
2015-Apr-28 19:33N 40°40' W 074°02'0 0.1
2015-Apr-28 18:33N 40°40' W 074°02'0 0.0
2015-Apr-28 17:33N 40°40' W 074°02'0 0.0
2015-Apr-28 16:33N 40°40' W 074°02'0 0.0
2015-Apr-28 15:33N 40°40' W 074°02'0 0.0
2015-Apr-28 14:33N 40°40' W 074°02'0 0.0
2015-Apr-28 13:33N 40°40' W 074°02'0 0.0
2015-Apr-28 12:33N 40°40' W 074°02'0 0.0
2015-Apr-28 11:33N 40°40' W 074°02'0 0.0
2015-Apr-28 10:33N 40°40' W 074°02'0 0.0
2015-Apr-28 09:33N 40°40' W 074°02'0 0.0
2015-Apr-28 08:33N 40°40' W 074°02'0 0.0
2015-Apr-28 07:33N 40°40' W 074°02'0 0.0
2015-Apr-28 06:33N 40°40' W 074°02'0 0.0
2015-Apr-28 05:33N 40°40' W 074°02'0 0.0
2015-Apr-28 04:33N 40°40' W 074°02'0 0.0
2015-Apr-28 03:33N 40°40' W 074°02'0 0.0
2015-Apr-28 02:33N 40°40' W 074°02'0 0.0
2015-Apr-28 01:33N 40°40' W 074°02'0 0.0
2015-Apr-28 00:33N 40°40' W 074°02'0 0.0
2015-Apr-27 23:34N 40°40' W 074°02'3 2.6
2015-Apr-27 22:33N 40°42' W 074°00'8 8.0
2015-Apr-27 21:33N 40°48' W 073°54'9 7.2
2015-Apr-27 20:20N 40°53' W 073°44'3 3.6
2015-Apr-27 19:32N 40°54' W 073°41'8 7.4
2015-Apr-27 18:31N 40°58' W 073°32'9 9.2
2015-Apr-27 17:33N 41°01' W 073°21'10 9.5
2015-Apr-27 16:33N 41°01' W 073°08'9 9.1
2015-Apr-27 15:33N 41°03' W 072°56'9 9.0
2015-Apr-27 14:33N 41°05' W 072°45'9 8.7
2015-Apr-27 13:33N 41°07' W 072°34'9 8.7
2015-Apr-27 12:33N 41°10' W 072°23'9 8.8
2015-Apr-27 11:33N 41°14' W 072°12'9 8.8
2015-Apr-27 10:33N 41°14' W 072°00'1010.0
2015-Apr-27 09:33N 41°16' W 071°47'1010.0
2015-Apr-27 08:33N 41°18' W 071°34'10 9.9
2015-Apr-27 07:33N 41°18' W 071°21'10 9.8
2015-Apr-27 06:33N 41°22' W 071°09'69 7.4
2015-Apr-26 21:17N 42°28' W 070°43'18 9.2
2015-Apr-26 19:22N 42°44' W 070°31'8 9.5
2015-Apr-26 18:33N 42°51' W 070°31'3 0.1
2015-Apr-25 01:08N 42°55' W 070°31'4 6.3
2015-Apr-25 00:33N 42°51' W 070°31'6 6.4
2015-Apr-24 23:33N 42°45' W 070°31'15 6.2
2015-Apr-24 21:03N 42°31' W 070°40'4 7.2
2015-Apr-24 20:33N 42°28' W 070°43'  
Track history (hours):
 
Tides and Currents Weather Stations Pressure Air Temp Water Temp Dewpoint Dewpoint Depression Visibility Wind Speed Wind Dir Waves Ship Positions

Morton S Bouchard Jr

Owner: BOUCHARD TRANSPORTATION CO INC, MELVILLE, NY. More information available from US FCC via Universal Licensing System and Coast Guard Vessel Documentation Center.

Last reported at 2015-May-04 11:33 UTC. Time now 2015-May-04 12:02 UTC.
Position N 40°41' W 074°00'.

Length 33 m; draft 6 m.

Type: Tug. MMSI: 367006550.

Date/timePositionNaut miles runAvg speedWind from/ knotsBaromVisibWave heightAir tempDewpointWater temp
2015-May-04 11:33N 40°41' W 074°00'0 0.0
2015-May-04 10:33N 40°41' W 074°00'0 0.0
2015-May-04 09:33N 40°41' W 074°00'0 0.0
2015-May-04 08:33N 40°41' W 074°00'0 0.0
2015-May-04 07:33N 40°41' W 074°00'0 0.0
2015-May-04 06:33N 40°41' W 074°00'0 0.0
2015-May-04 05:33N 40°41' W 074°00'0 0.0
2015-May-04 04:33N 40°42' W 074°00'0 0.0
2015-May-04 03:33N 40°42' W 074°00'0 0.0
2015-May-04 02:33N 40°42' W 074°00'0 0.0
2015-May-04 01:33N 40°41' W 074°00'0 0.0
2015-May-04 00:33N 40°41' W 074°00'0 0.1
2015-May-03 23:33N 40°41' W 074°00'3 3.3
2015-May-03 22:34N 40°40' W 074°04'7 7.2
2015-May-03 21:33N 40°36' W 074°12'0 0.0
2015-May-03 20:34N 40°36' W 074°12'5 4.5
2015-May-03 19:31N 40°32' W 074°15'0 0.0
2015-May-03 18:33N 40°32' W 074°15'0 0.0
2015-May-03 17:33N 40°32' W 074°15'0 0.0
2015-May-03 16:33N 40°32' W 074°15'0 0.0
2015-May-03 15:33N 40°32' W 074°15'0 0.0
2015-May-03 14:33N 40°32' W 074°15'0 0.0
2015-May-03 13:05N 40°32' W 074°15'0 0.3
2015-May-03 11:23N 40°33' W 074°15'0 0.1
2015-May-03 10:33N 40°33' W 074°15'7 6.6
2015-May-03 09:33N 40°39' W 074°11'3 3.3
2015-May-03 08:33N 40°39' W 074°07'0 0.0
2015-May-03 07:33N 40°39' W 074°07'0 0.0
2015-May-03 06:33N 40°39' W 074°07'0 0.0
2015-May-03 05:33N 40°39' W 074°07'0 0.0
2015-May-03 04:33N 40°39' W 074°07'0 0.0
2015-May-03 03:33N 40°39' W 074°07'0 0.0
2015-May-03 02:33N 40°39' W 074°07'0 0.0
2015-May-03 01:33N 40°39' W 074°07'0 0.0
2015-May-03 00:32N 40°39' W 074°07'0 0.0
2015-May-02 23:33N 40°39' W 074°07'0 0.0
2015-May-02 22:33N 40°39' W 074°07'4 3.7
2015-May-02 21:33N 40°38' W 074°12'1 1.0
2015-May-02 20:33N 40°37' W 074°12'5 4.7
2015-May-02 19:33N 40°39' W 074°06'3 3.0
2015-May-02 18:33N 40°40' W 074°03'0 0.0
2015-May-02 17:33N 40°40' W 074°03'0 0.0
2015-May-02 16:33N 40°40' W 074°03'0 0.0
2015-May-02 15:33N 40°40' W 074°03'0 0.1
2015-May-02 14:33N 40°40' W 074°03'0 0.0
2015-May-02 13:33N 40°40' W 074°03'0 0.0
2015-May-02 12:33N 40°40' W 074°02'0 0.0
2015-May-02 11:33N 40°40' W 074°02'0 0.1
2015-May-02 10:33N 40°40' W 074°03'0 0.1
2015-May-02 09:33N 40°40' W 074°03'0 0.0
2015-May-02 08:33N 40°40' W 074°03'0 0.0
2015-May-02 07:33N 40°40' W 074°03'0 0.0
2015-May-02 06:33N 40°40' W 074°03'0 0.0
2015-May-02 05:33N 40°40' W 074°03'0 0.0
2015-May-02 04:33N 40°40' W 074°03'0 0.0
2015-May-02 03:33N 40°40' W 074°03'0 0.1
2015-May-02 02:33N 40°40' W 074°03'5 5.4
2015-May-02 01:33N 40°44' W 073°58'6 5.8
2015-May-02 00:33N 40°48' W 073°52'5 4.9
2015-May-01 23:32N 40°50' W 073°46'8 3.9
2015-May-01 21:33N 40°55' W 073°38'5 5.1
2015-May-01 20:33N 40°57' W 073°32'7 7.0
2015-May-01 19:33N 41°00' W 073°24'7 6.8
2015-May-01 18:33N 41°03' W 073°16'7 6.7
2015-May-01 17:33N 41°05' W 073°07'7 6.7
2015-May-01 16:33N 41°09' W 073°00'7 6.5
2015-May-01 15:33N 41°14' W 072°55'3 3.3
2015-May-01 14:31N 41°18' W 072°54'0 0.0
2015-May-01 11:11N 41°18' W 072°54'0 0.0
2015-May-01 10:33N 41°18' W 072°54'0 0.0
2015-May-01 09:33N 41°18' W 072°54'0 0.0
2015-May-01 08:33N 41°18' W 072°54'0 0.0
2015-May-01 07:33N 41°18' W 072°54'0 0.0
2015-May-01 06:33N 41°18' W 072°54'0 0.0
2015-May-01 05:21N 41°18' W 072°54'0 0.0
2015-May-01 04:22N 41°18' W 072°54'0 0.0
2015-May-01 03:30N 41°18' W 072°54'0 0.0
2015-May-01 02:32N 41°18' W 072°54'0 0.0
2015-May-01 01:33N 41°18' W 072°54'0 0.0
2015-May-01 00:32N 41°18' W 072°54'0 0.0
2015-Apr-30 23:33N 41°18' W 072°54'0 0.0
2015-Apr-30 22:31N 41°18' W 072°54'0 0.0
2015-Apr-30 21:06N 41°18' W 072°54'0 0.0
2015-Apr-30 20:31N 41°18' W 072°54'4 3.7
2015-Apr-30 19:33N 41°14' W 072°55'7 6.8
2015-Apr-30 18:33N 41°09' W 073°01'8 8.1
2015-Apr-30 17:33N 41°04' W 073°10'8 8.1
2015-Apr-30 16:33N 41°01' W 073°20'8 8.0
2015-Apr-30 15:33N 40°58' W 073°30'7 7.5
2015-Apr-30 14:33N 40°55' W 073°39'7 7.2
2015-Apr-30 13:33N 40°51' W 073°46'6 6.0
2015-Apr-30 12:33N 40°48' W 073°53'6 6.0
2015-Apr-30 11:33N 40°43' W 073°58'7 6.6
2015-Apr-30 10:33N 40°39' W 074°04'6 6.4
2015-Apr-30 09:33N 40°36' W 074°12'1 1.5
2015-Apr-30 08:33N 40°35' W 074°13'0 0.0
2015-Apr-30 07:34N 40°35' W 074°13'4 4.3
2015-Apr-30 06:33N 40°39' W 074°10'2 2.4
2015-Apr-30 05:33N 40°39' W 074°07'0 0.0
2015-Apr-30 04:33N 40°39' W 074°07'0 0.0
2015-Apr-30 03:34N 40°39' W 074°07'0 0.0
2015-Apr-30 02:33N 40°39' W 074°07'0 0.0
2015-Apr-30 01:33N 40°39' W 074°07'0 0.0
2015-Apr-30 00:33N 40°39' W 074°07'0 0.0
2015-Apr-29 23:33N 40°39' W 074°07'0 0.0
2015-Apr-29 22:33N 40°39' W 074°07'0 0.0
2015-Apr-29 21:33N 40°39' W 074°07'0 0.0
2015-Apr-29 20:33N 40°39' W 074°07'0 0.0
2015-Apr-29 19:33N 40°39' W 074°07'0 0.0
2015-Apr-29 18:33N 40°39' W 074°07'4 4.4
2015-Apr-29 17:33N 40°37' W 074°12'2 1.6
2015-Apr-29 16:30N 40°35' W 074°12'5 5.4
2015-Apr-29 15:33N 40°39' W 074°07'4 4.1
2015-Apr-29 14:33N 40°40' W 074°02'0 0.0
2015-Apr-29 13:33N 40°40' W 074°02'0 0.0
2015-Apr-29 12:33N 40°40' W 074°02'0 0.0
2015-Apr-29 11:33N 40°40' W 074°02'0 0.1
2015-Apr-29 10:33N 40°40' W 074°02'0 0.0
2015-Apr-29 09:33N 40°40' W 074°02'0 0.1
2015-Apr-29 08:33N 40°40' W 074°02'0 0.0
2015-Apr-29 07:33N 40°40' W 074°02'0 0.0
2015-Apr-29 06:33N 40°40' W 074°02'0 0.0
2015-Apr-29 05:33N 40°40' W 074°02'0 0.0
2015-Apr-29 04:33N 40°40' W 074°02'0 0.0
2015-Apr-29 03:33N 40°40' W 074°02'0 0.0
2015-Apr-29 02:33N 40°40' W 074°02'0 0.0
2015-Apr-29 01:34N 40°40' W 074°02'0 0.0
2015-Apr-29 00:33N 40°40' W 074°02'0 0.0
2015-Apr-28 23:33N 40°40' W 074°02'0 0.0
2015-Apr-28 22:34N 40°40' W 074°02'0 0.0
2015-Apr-28 21:33N 40°40' W 074°02'0 0.1
2015-Apr-28 20:33N 40°40' W 074°02'0 0.0
2015-Apr-28 19:33N 40°40' W 074°02'0 0.1
2015-Apr-28 18:33N 40°40' W 074°02'0 0.0
2015-Apr-28 17:33N 40°40' W 074°02'0 0.0
2015-Apr-28 16:33N 40°40' W 074°02'0 0.0
2015-Apr-28 15:33N 40°40' W 074°02'0 0.0
2015-Apr-28 14:33N 40°40' W 074°02'0 0.0
2015-Apr-28 13:33N 40°40' W 074°02'0 0.0
2015-Apr-28 12:33N 40°40' W 074°02'0 0.0
2015-Apr-28 11:33N 40°40' W 074°02'0 0.0
2015-Apr-28 10:33N 40°40' W 074°02'0 0.0
2015-Apr-28 09:33N 40°40' W 074°02'0 0.0
2015-Apr-28 08:33N 40°40' W 074°02'0 0.0
2015-Apr-28 07:33N 40°40' W 074°02'0 0.0
2015-Apr-28 06:33N 40°40' W 074°02'0 0.0
2015-Apr-28 05:33N 40°40' W 074°02'0 0.0
2015-Apr-28 04:33N 40°40' W 074°02'0 0.0
2015-Apr-28 03:33N 40°40' W 074°02'0 0.0
2015-Apr-28 02:33N 40°40' W 074°02'0 0.0
2015-Apr-28 01:33N 40°40' W 074°02'0 0.0
2015-Apr-28 00:33N 40°40' W 074°02'0 0.0
2015-Apr-27 23:34N 40°40' W 074°02'3 2.6
2015-Apr-27 22:33N 40°42' W 074°00'8 8.0
2015-Apr-27 21:33N 40°48' W 073°54'9 7.2
2015-Apr-27 20:20N 40°53' W 073°44'3 3.6
2015-Apr-27 19:32N 40°54' W 073°41'8 7.4
2015-Apr-27 18:31N 40°58' W 073°32'9 9.2
2015-Apr-27 17:33N 41°01' W 073°21'10 9.5
2015-Apr-27 16:33N 41°01' W 073°08'9 9.1
2015-Apr-27 15:33N 41°03' W 072°56'9 9.0
2015-Apr-27 14:33N 41°05' W 072°45'9 8.7
2015-Apr-27 13:33N 41°07' W 072°34'9 8.7
2015-Apr-27 12:33N 41°10' W 072°23'9 8.8
2015-Apr-27 11:33N 41°14' W 072°12'9 8.8
2015-Apr-27 10:33N 41°14' W 072°00'1010.0
2015-Apr-27 09:33N 41°16' W 071°47'1010.0
2015-Apr-27 08:33N 41°18' W 071°34'10 9.9
2015-Apr-27 07:33N 41°18' W 071°21'10 9.8
2015-Apr-27 06:33N 41°22' W 071°09'69 7.4
2015-Apr-26 21:17N 42°28' W 070°43'18 9.2
2015-Apr-26 19:22N 42°44' W 070°31'8 9.5
2015-Apr-26 18:33N 42°51' W 070°31'3 0.1
2015-Apr-25 01:08N 42°55' W 070°31'4 6.3
2015-Apr-25 00:33N 42°51' W 070°31'6 6.4
2015-Apr-24 23:33N 42°45' W 070°31'15 6.2
2015-Apr-24 21:03N 42°31' W 070°40'4 7.2
2015-Apr-24 20:33N 42°28' W 070°43'  

Dump ship's entire track history